sensor_id;sensor_type;location;lat;lon;timestamp;P1;durP1;ratioP1;P2;durP2;ratioP2
36061;SDS011;22123;52.412;20.970;2022-08-19T05:09:57;20.38;;;18.17;;
36061;SDS011;22123;52.412;20.970;2022-08-19T05:12:22;25.60;;;19.20;;
36061;SDS011;22123;52.412;20.970;2022-08-19T05:14:48;24.17;;;17.48;;
36061;SDS011;22123;52.412;20.970;2022-08-19T05:17:14;16.90;;;14.75;;
36061;SDS011;22123;52.412;20.970;2022-08-19T05:19:40;23.92;;;17.20;;
36061;SDS011;22123;52.412;20.970;2022-08-19T05:22:24;29.35;;;15.68;;
36061;SDS011;22123;52.412;20.970;2022-08-19T05:25:00;27.48;;;15.20;;
36061;SDS011;22123;52.412;20.970;2022-08-19T05:27:28;16.27;;;14.27;;
36061;SDS011;22123;52.412;20.970;2022-08-19T05:29:54;26.50;;;15.38;;
36061;SDS011;22123;52.412;20.970;2022-08-19T05:32:19;23.52;;;14.48;;
36061;SDS011;22123;52.412;20.970;2022-08-19T05:34:44;20.48;;;13.82;;
36061;SDS011;22123;52.412;20.970;2022-08-19T05:37:09;19.02;;;12.93;;
36061;SDS011;22123;52.412;20.970;2022-08-19T05:39:36;19.00;;;13.60;;
36061;SDS011;22123;52.412;20.970;2022-08-19T05:42:07;19.25;;;12.88;;
36061;SDS011;22123;52.412;20.970;2022-08-19T05:44:35;20.90;;;12.85;;
36061;SDS011;22123;52.412;20.970;2022-08-19T05:47:09;18.85;;;13.45;;
36061;SDS011;22123;52.412;20.970;2022-08-19T05:49:36;21.58;;;14.98;;
36061;SDS011;22123;52.412;20.970;2022-08-19T05:52:06;17.38;;;13.90;;
36061;SDS011;22123;52.412;20.970;2022-08-19T05:54:33;17.80;;;13.88;;
36061;SDS011;22123;52.412;20.970;2022-08-19T05:56:59;20.38;;;13.10;;
36061;SDS011;22123;52.412;20.970;2022-08-19T05:59:25;16.58;;;13.20;;
36061;SDS011;22123;52.412;20.970;2022-08-19T06:01:51;19.15;;;12.38;;
36061;SDS011;22123;52.412;20.970;2022-08-19T06:04:19;15.85;;;12.30;;
36061;SDS011;22123;52.412;20.970;2022-08-19T06:06:48;19.25;;;11.90;;
36061;SDS011;22123;52.412;20.970;2022-08-19T06:09:16;20.00;;;12.13;;
36061;SDS011;22123;52.412;20.970;2022-08-19T06:11:43;18.45;;;11.40;;
36061;SDS011;22123;52.412;20.970;2022-08-19T06:14:12;18.17;;;11.10;;
36061;SDS011;22123;52.412;20.970;2022-08-19T06:16:43;17.25;;;10.40;;
36061;SDS011;22123;52.412;20.970;2022-08-19T06:19:10;15.50;;;11.10;;
36061;SDS011;22123;52.412;20.970;2022-08-19T06:21:38;13.80;;;10.73;;
36061;SDS011;22123;52.412;20.970;2022-08-19T06:24:06;19.65;;;11.40;;
36061;SDS011;22123;52.412;20.970;2022-08-19T06:26:34;14.73;;;9.48;;
36061;SDS011;22123;52.412;20.970;2022-08-19T06:29:02;14.57;;;10.30;;
36061;SDS011;22123;52.412;20.970;2022-08-19T06:31:30;16.67;;;10.82;;
36061;SDS011;22123;52.412;20.970;2022-08-19T06:33:58;14.13;;;10.60;;
36061;SDS011;22123;52.412;20.970;2022-08-19T06:36:44;18.48;;;11.63;;
36061;SDS011;22123;52.412;20.970;2022-08-19T06:39:18;24.13;;;10.63;;
36061;SDS011;22123;52.412;20.970;2022-08-19T06:41:47;17.42;;;11.00;;
36061;SDS011;22123;52.412;20.970;2022-08-19T06:44:14;21.80;;;9.38;;
36061;SDS011;22123;52.412;20.970;2022-08-19T06:46:41;31.30;;;9.88;;
36061;SDS011;22123;52.412;20.970;2022-08-19T06:49:06;18.95;;;9.82;;
36061;SDS011;22123;52.412;20.970;2022-08-19T06:51:35;20.02;;;9.60;;
36061;SDS011;22123;52.412;20.970;2022-08-19T06:54:00;19.85;;;10.23;;
36061;SDS011;22123;52.412;20.970;2022-08-19T06:56:27;11.95;;;9.23;;
36061;SDS011;22123;52.412;20.970;2022-08-19T06:58:59;13.43;;;9.25;;
36061;SDS011;22123;52.412;20.970;2022-08-19T07:01:25;15.02;;;9.63;;
36061;SDS011;22123;52.412;20.970;2022-08-19T07:03:51;15.10;;;9.07;;
36061;SDS011;22123;52.412;20.970;2022-08-19T07:06:17;14.38;;;8.80;;
36061;SDS011;22123;52.412;20.970;2022-08-19T07:08:45;11.82;;;8.82;;
36061;SDS011;22123;52.412;20.970;2022-08-19T07:11:12;18.20;;;9.45;;
36061;SDS011;22123;52.412;20.970;2022-08-19T07:13:39;14.48;;;8.23;;
36061;SDS011;22123;52.412;20.970;2022-08-19T07:16:09;22.00;;;9.20;;
36061;SDS011;22123;52.412;20.970;2022-08-19T07:18:36;21.02;;;8.82;;
36061;SDS011;22123;52.412;20.970;2022-08-19T07:21:04;11.88;;;7.80;;
36061;SDS011;22123;52.412;20.970;2022-08-19T07:23:31;19.65;;;9.90;;
36061;SDS011;22123;52.412;20.970;2022-08-19T07:25:56;13.77;;;7.93;;
36061;SDS011;22123;52.412;20.970;2022-08-19T07:28:22;17.55;;;9.40;;
36061;SDS011;22123;52.412;20.970;2022-08-19T07:30:47;22.95;;;13.90;;
36061;SDS011;22123;52.412;20.970;2022-08-19T07:33:13;24.27;;;13.73;;
36061;SDS011;22123;52.412;20.970;2022-08-19T07:35:38;18.10;;;10.40;;
36061;SDS011;22123;52.412;20.970;2022-08-19T07:38:04;17.08;;;9.00;;
36061;SDS011;22123;52.412;20.970;2022-08-19T07:40:36;14.30;;;8.77;;
36061;SDS011;22123;52.412;20.970;2022-08-19T07:43:01;25.25;;;12.13;;
36061;SDS011;22123;52.412;20.970;2022-08-19T07:45:27;18.70;;;8.43;;
36061;SDS011;22123;52.412;20.970;2022-08-19T07:47:53;23.42;;;14.57;;
36061;SDS011;22123;52.412;20.970;2022-08-19T07:50:19;23.58;;;10.57;;
36061;SDS011;22123;52.412;20.970;2022-08-19T07:52:45;22.27;;;8.88;;
36061;SDS011;22123;52.412;20.970;2022-08-19T07:55:11;13.18;;;8.60;;
36061;SDS011;22123;52.412;20.970;2022-08-19T07:57:37;14.05;;;8.50;;
36061;SDS011;22123;52.412;20.970;2022-08-19T08:00:04;15.18;;;9.40;;
36061;SDS011;22123;52.412;20.970;2022-08-19T08:02:30;13.02;;;8.75;;
36061;SDS011;22123;52.412;20.970;2022-08-19T08:04:55;14.85;;;8.02;;
36061;SDS011;22123;52.412;20.970;2022-08-19T08:07:39;11.45;;;8.23;;
36061;SDS011;22123;52.412;20.970;2022-08-19T08:10:23;11.10;;;7.40;;
36061;SDS011;22123;52.412;20.970;2022-08-19T08:12:51;14.32;;;7.20;;
36061;SDS011;22123;52.412;20.970;2022-08-19T08:15:16;11.70;;;7.03;;
36061;SDS011;22123;52.412;20.970;2022-08-19T08:17:43;12.45;;;6.88;;
36061;SDS011;22123;52.412;20.970;2022-08-19T08:20:09;17.50;;;7.28;;
36061;SDS011;22123;52.412;20.970;2022-08-19T08:22:36;13.27;;;6.28;;
36061;SDS011;22123;52.412;20.970;2022-08-19T08:25:21;14.55;;;7.00;;
36061;SDS011;22123;52.412;20.970;2022-08-19T08:27:48;20.35;;;6.88;;
36061;SDS011;22123;52.412;20.970;2022-08-19T08:30:18;12.13;;;6.95;;
36061;SDS011;22123;52.412;20.970;2022-08-19T08:32:47;13.23;;;6.40;;
36061;SDS011;22123;52.412;20.970;2022-08-19T08:35:14;14.15;;;5.90;;
36061;SDS011;22123;52.412;20.970;2022-08-19T08:37:41;16.58;;;6.53;;
36061;SDS011;22123;52.412;20.970;2022-08-19T08:40:32;13.02;;;6.22;;
36061;SDS011;22123;52.412;20.970;2022-08-19T08:45:56;14.60;;;6.37;;
36061;SDS011;22123;52.412;20.970;2022-08-19T08:51:15;13.15;;;6.20;;
36061;SDS011;22123;52.412;20.970;2022-08-19T08:53:46;14.38;;;6.65;;
36061;SDS011;22123;52.412;20.970;2022-08-19T08:56:14;17.50;;;6.05;;
36061;SDS011;22123;52.412;20.970;2022-08-19T08:59:02;12.45;;;5.72;;
36061;SDS011;22123;52.412;20.970;2022-08-19T09:01:28;16.88;;;5.97;;
36061;SDS011;22123;52.412;20.970;2022-08-19T09:03:54;15.18;;;6.28;;
36061;SDS011;22123;52.412;20.970;2022-08-19T09:11:30;14.95;;;6.20;;
36061;SDS011;22123;52.412;20.970;2022-08-19T09:14:55;7.80;;;6.00;;
36061;SDS011;22123;52.412;20.970;2022-08-19T09:17:11;10.13;;;6.17;;
36061;SDS011;22123;52.412;20.970;2022-08-19T09:19:51;12.23;;;6.80;;
36061;SDS011;22123;52.412;20.970;2022-08-19T09:22:35;11.73;;;6.20;;
36061;SDS011;22123;52.412;20.970;2022-08-19T09:25:02;12.15;;;6.07;;
36061;SDS011;22123;52.412;20.970;2022-08-19T09:27:28;24.80;;;7.05;;
36061;SDS011;22123;52.412;20.970;2022-08-19T09:29:54;13.30;;;7.15;;
36061;SDS011;22123;52.412;20.970;2022-08-19T09:32:21;18.95;;;7.25;;
36061;SDS011;22123;52.412;20.970;2022-08-19T09:34:47;20.48;;;7.15;;
36061;SDS011;22123;52.412;20.970;2022-08-19T09:37:13;16.55;;;6.53;;
36061;SDS011;22123;52.412;20.970;2022-08-19T09:39:39;13.60;;;6.63;;
36061;SDS011;22123;52.412;20.970;2022-08-19T09:42:06;12.00;;;7.25;;
36061;SDS011;22123;52.412;20.970;2022-08-19T09:44:39;11.63;;;7.00;;
36061;SDS011;22123;52.412;20.970;2022-08-19T09:47:06;20.90;;;7.18;;
36061;SDS011;22123;52.412;20.970;2022-08-19T09:49:32;16.17;;;6.53;;
36061;SDS011;22123;52.412;20.970;2022-08-19T09:51:58;11.73;;;6.50;;
36061;SDS011;22123;52.412;20.970;2022-08-19T09:54:24;11.70;;;6.50;;
36061;SDS011;22123;52.412;20.970;2022-08-19T09:56:50;12.07;;;6.47;;
36061;SDS011;22123;52.412;20.970;2022-08-19T09:59:15;16.05;;;6.75;;
36061;SDS011;22123;52.412;20.970;2022-08-19T10:01:41;14.55;;;6.68;;
36061;SDS011;22123;52.412;20.970;2022-08-19T10:04:06;14.82;;;6.38;;
36061;SDS011;22123;52.412;20.970;2022-08-19T10:06:33;9.30;;;6.00;;
36061;SDS011;22123;52.412;20.970;2022-08-19T10:08:59;16.30;;;6.78;;
36061;SDS011;22123;52.412;20.970;2022-08-19T10:11:25;13.38;;;6.18;;
36061;SDS011;22123;52.412;20.970;2022-08-19T10:13:51;16.80;;;7.13;;
36061;SDS011;22123;52.412;20.970;2022-08-19T10:16:19;14.45;;;5.78;;
36061;SDS011;22123;52.412;20.970;2022-08-19T10:21:13;17.58;;;6.97;;
36061;SDS011;22123;52.412;20.970;2022-08-19T10:23:48;28.98;;;7.93;;
36061;SDS011;22123;52.412;20.970;2022-08-19T10:26:20;16.58;;;6.50;;
36061;SDS011;22123;52.412;20.970;2022-08-19T10:28:48;12.77;;;6.10;;
36061;SDS011;22123;52.412;20.970;2022-08-19T10:31:15;12.73;;;6.55;;
36061;SDS011;22123;52.412;20.970;2022-08-19T10:33:45;18.60;;;6.47;;
36061;SDS011;22123;52.412;20.970;2022-08-19T10:36:13;10.77;;;6.00;;
36061;SDS011;22123;52.412;20.970;2022-08-19T10:38:45;16.70;;;5.95;;
36061;SDS011;22123;52.412;20.970;2022-08-19T10:41:16;13.77;;;6.25;;
36061;SDS011;22123;52.412;20.970;2022-08-19T10:43:45;13.63;;;6.40;;
36061;SDS011;22123;52.412;20.970;2022-08-19T10:46:11;11.05;;;5.55;;
36061;SDS011;22123;52.412;20.970;2022-08-19T10:48:39;13.90;;;5.93;;
36061;SDS011;22123;52.412;20.970;2022-08-19T10:51:05;15.07;;;6.05;;
36061;SDS011;22123;52.412;20.970;2022-08-19T10:53:50;11.60;;;6.00;;
36061;SDS011;22123;52.412;20.970;2022-08-19T10:56:16;12.30;;;6.28;;
36061;SDS011;22123;52.412;20.970;2022-08-19T10:59:00;13.55;;;5.50;;
36061;SDS011;22123;52.412;20.970;2022-08-19T11:01:27;18.38;;;6.40;;
36061;SDS011;22123;52.412;20.970;2022-08-19T11:03:54;16.10;;;5.45;;
36061;SDS011;22123;52.412;20.970;2022-08-19T11:06:21;11.60;;;6.03;;
36061;SDS011;22123;52.412;20.970;2022-08-19T11:08:46;16.08;;;6.18;;
36061;SDS011;22123;52.412;20.970;2022-08-19T11:11:12;18.60;;;7.53;;
36061;SDS011;22123;52.412;20.970;2022-08-19T11:13:38;15.95;;;5.57;;
36061;SDS011;22123;52.412;20.970;2022-08-19T11:16:07;14.07;;;5.88;;
36061;SDS011;22123;52.412;20.970;2022-08-19T11:18:42;16.98;;;5.90;;
36061;SDS011;22123;52.412;20.970;2022-08-19T11:21:14;16.02;;;5.88;;
36061;SDS011;22123;52.412;20.970;2022-08-19T11:23:42;14.13;;;5.88;;
36061;SDS011;22123;52.412;20.970;2022-08-19T11:26:08;10.02;;;4.90;;
36061;SDS011;22123;52.412;20.970;2022-08-19T11:28:33;17.38;;;5.40;;
36061;SDS011;22123;52.412;20.970;2022-08-19T11:30:59;16.52;;;5.47;;
36061;SDS011;22123;52.412;20.970;2022-08-19T11:33:24;12.70;;;6.05;;
36061;SDS011;22123;52.412;20.970;2022-08-19T11:35:51;13.20;;;5.43;;
36061;SDS011;22123;52.412;20.970;2022-08-19T11:38:17;17.13;;;5.78;;
36061;SDS011;22123;52.412;20.970;2022-08-19T11:40:43;11.27;;;5.45;;
36061;SDS011;22123;52.412;20.970;2022-08-19T11:43:09;13.23;;;5.30;;
36061;SDS011;22123;52.412;20.970;2022-08-19T11:45:34;14.45;;;5.50;;
36061;SDS011;22123;52.412;20.970;2022-08-19T11:48:00;10.82;;;4.95;;
36061;SDS011;22123;52.412;20.970;2022-08-19T11:50:26;12.05;;;4.90;;
36061;SDS011;22123;52.412;20.970;2022-08-19T11:52:55;12.30;;;4.95;;
36061;SDS011;22123;52.412;20.970;2022-08-19T11:55:21;10.82;;;4.95;;
36061;SDS011;22123;52.412;20.970;2022-08-19T11:57:47;17.90;;;5.25;;
36061;SDS011;22123;52.412;20.970;2022-08-19T12:00:13;11.55;;;5.20;;
36061;SDS011;22123;52.412;20.970;2022-08-19T12:02:39;7.53;;;5.53;;
36061;SDS011;22123;52.412;20.970;2022-08-19T12:05:05;7.03;;;4.40;;
36061;SDS011;22123;52.412;20.970;2022-08-19T12:07:31;9.13;;;5.40;;
36061;SDS011;22123;52.412;20.970;2022-08-19T12:09:59;13.85;;;5.07;;
36061;SDS011;22123;52.412;20.970;2022-08-19T12:12:25;21.52;;;4.68;;
36061;SDS011;22123;52.412;20.970;2022-08-19T12:14:51;15.00;;;5.45;;
36061;SDS011;22123;52.412;20.970;2022-08-19T12:17:22;15.98;;;5.20;;
36061;SDS011;22123;52.412;20.970;2022-08-19T12:19:50;13.50;;;4.90;;
36061;SDS011;22123;52.412;20.970;2022-08-19T12:22:15;14.02;;;5.25;;
36061;SDS011;22123;52.412;20.970;2022-08-19T12:24:41;22.30;;;5.55;;
36061;SDS011;22123;52.412;20.970;2022-08-19T12:27:06;9.25;;;4.70;;
36061;SDS011;22123;52.412;20.970;2022-08-19T12:29:32;13.38;;;4.45;;
36061;SDS011;22123;52.412;20.970;2022-08-19T12:31:58;12.02;;;5.40;;
36061;SDS011;22123;52.412;20.970;2022-08-19T12:34:30;18.42;;;5.05;;
36061;SDS011;22123;52.412;20.970;2022-08-19T12:36:57;12.30;;;4.93;;
36061;SDS011;22123;52.412;20.970;2022-08-19T12:39:23;14.00;;;4.95;;
36061;SDS011;22123;52.412;20.970;2022-08-19T12:41:49;10.15;;;5.25;;
36061;SDS011;22123;52.412;20.970;2022-08-19T12:44:15;14.32;;;5.32;;
36061;SDS011;22123;52.412;20.970;2022-08-19T12:46:41;11.77;;;4.68;;
36061;SDS011;22123;52.412;20.970;2022-08-19T12:49:07;15.20;;;5.00;;
36061;SDS011;22123;52.412;20.970;2022-08-19T12:51:33;15.02;;;4.82;;
36061;SDS011;22123;52.412;20.970;2022-08-19T12:53:58;12.63;;;5.15;;
36061;SDS011;22123;52.412;20.970;2022-08-19T12:56:24;14.05;;;4.40;;
36061;SDS011;22123;52.412;20.970;2022-08-19T12:58:49;15.15;;;5.20;;
36061;SDS011;22123;52.412;20.970;2022-08-19T13:01:16;12.90;;;4.95;;
36061;SDS011;22123;52.412;20.970;2022-08-19T13:03:44;11.90;;;4.53;;
36061;SDS011;22123;52.412;20.970;2022-08-19T13:06:11;9.48;;;4.55;;
36061;SDS011;22123;52.412;20.970;2022-08-19T13:08:37;14.75;;;4.57;;
36061;SDS011;22123;52.412;20.970;2022-08-19T13:11:13;15.05;;;4.53;;
36061;SDS011;22123;52.412;20.970;2022-08-19T13:13:42;18.30;;;4.78;;
36061;SDS011;22123;52.412;20.970;2022-08-19T13:16:09;17.60;;;4.78;;
36061;SDS011;22123;52.412;20.970;2022-08-19T13:18:36;16.02;;;4.55;;
36061;SDS011;22123;52.412;20.970;2022-08-19T13:21:06;22.00;;;4.93;;
36061;SDS011;22123;52.412;20.970;2022-08-19T13:23:34;15.38;;;4.40;;
36061;SDS011;22123;52.412;20.970;2022-08-19T13:26:01;16.27;;;4.47;;
36061;SDS011;22123;52.412;20.970;2022-08-19T13:28:30;14.25;;;4.85;;
36061;SDS011;22123;52.412;20.970;2022-08-19T13:31:20;19.45;;;4.50;;
36061;SDS011;22123;52.412;20.970;2022-08-19T13:34:06;11.82;;;4.60;;
36061;SDS011;22123;52.412;20.970;2022-08-19T13:36:32;13.15;;;4.53;;
36061;SDS011;22123;52.412;20.970;2022-08-19T13:38:58;12.38;;;4.10;;
36061;SDS011;22123;52.412;20.970;2022-08-19T13:41:24;9.77;;;4.25;;
36061;SDS011;22123;52.412;20.970;2022-08-19T13:43:50;11.13;;;4.30;;
36061;SDS011;22123;52.412;20.970;2022-08-19T13:46:15;13.52;;;4.20;;
36061;SDS011;22123;52.412;20.970;2022-08-19T13:48:40;8.85;;;4.25;;
36061;SDS011;22123;52.412;20.970;2022-08-19T13:51:06;11.35;;;5.97;;
36061;SDS011;22123;52.412;20.970;2022-08-19T13:53:35;13.88;;;4.38;;
36061;SDS011;22123;52.412;20.970;2022-08-19T13:56:06;11.40;;;3.75;;
36061;SDS011;22123;52.412;20.970;2022-08-19T13:58:32;18.27;;;4.47;;
36061;SDS011;22123;52.412;20.970;2022-08-19T14:00:57;10.70;;;3.95;;
36061;SDS011;22123;52.412;20.970;2022-08-19T14:03:24;6.78;;;4.03;;
36061;SDS011;22123;52.412;20.970;2022-08-19T14:05:49;10.73;;;3.90;;
36061;SDS011;22123;52.412;20.970;2022-08-19T14:08:15;12.18;;;4.45;;
36061;SDS011;22123;52.412;20.970;2022-08-19T14:10:40;11.43;;;4.47;;
36061;SDS011;22123;52.412;20.970;2022-08-19T14:13:09;13.45;;;4.10;;
36061;SDS011;22123;52.412;20.970;2022-08-19T14:15:34;15.75;;;4.63;;
36061;SDS011;22123;52.412;20.970;2022-08-19T14:17:59;17.35;;;4.50;;
36061;SDS011;22123;52.412;20.970;2022-08-19T14:20:25;13.20;;;4.28;;
36061;SDS011;22123;52.412;20.970;2022-08-19T14:22:51;12.57;;;4.50;;
36061;SDS011;22123;52.412;20.970;2022-08-19T14:25:18;8.25;;;4.05;;
36061;SDS011;22123;52.412;20.970;2022-08-19T14:27:50;12.68;;;4.13;;
36061;SDS011;22123;52.412;20.970;2022-08-19T14:30:17;18.88;;;4.68;;
36061;SDS011;22123;52.412;20.970;2022-08-19T14:35:12;10.13;;;4.10;;
36061;SDS011;22123;52.412;20.970;2022-08-19T14:37:39;15.00;;;4.25;;
36061;SDS011;22123;52.412;20.970;2022-08-19T14:40:05;13.95;;;4.35;;
36061;SDS011;22123;52.412;20.970;2022-08-19T14:42:31;14.15;;;5.43;;
36061;SDS011;22123;52.412;20.970;2022-08-19T14:44:57;20.33;;;4.50;;
36061;SDS011;22123;52.412;20.970;2022-08-19T14:47:29;10.82;;;4.65;;
36061;SDS011;22123;52.412;20.970;2022-08-19T14:49:54;15.73;;;4.57;;
36061;SDS011;22123;52.412;20.970;2022-08-19T14:52:20;13.68;;;4.75;;
36061;SDS011;22123;52.412;20.970;2022-08-19T14:54:45;17.95;;;4.43;;
36061;SDS011;22123;52.412;20.970;2022-08-19T14:57:11;13.82;;;4.63;;
36061;SDS011;22123;52.412;20.970;2022-08-19T14:59:40;15.82;;;4.63;;
36061;SDS011;22123;52.412;20.970;2022-08-19T15:02:06;14.45;;;4.80;;
36061;SDS011;22123;52.412;20.970;2022-08-19T15:04:31;17.52;;;4.50;;
36061;SDS011;22123;52.412;20.970;2022-08-19T15:06:57;12.93;;;4.43;;
36061;SDS011;22123;52.412;20.970;2022-08-19T15:09:22;10.57;;;4.53;;
36061;SDS011;22123;52.412;20.970;2022-08-19T15:11:48;11.68;;;4.90;;
36061;SDS011;22123;52.412;20.970;2022-08-19T15:14:14;10.25;;;4.45;;
36061;SDS011;22123;52.412;20.970;2022-08-19T15:16:40;22.05;;;4.50;;
36061;SDS011;22123;52.412;20.970;2022-08-19T15:19:06;7.90;;;4.10;;
36061;SDS011;22123;52.412;20.970;2022-08-19T15:21:33;11.63;;;4.00;;
36061;SDS011;22123;52.412;20.970;2022-08-19T15:23:58;14.40;;;4.07;;
36061;SDS011;22123;52.412;20.970;2022-08-19T15:26:25;12.27;;;4.00;;
36061;SDS011;22123;52.412;20.970;2022-08-19T15:28:52;11.50;;;4.10;;
36061;SDS011;22123;52.412;20.970;2022-08-19T15:31:19;13.75;;;5.18;;
36061;SDS011;22123;52.412;20.970;2022-08-19T15:33:47;16.88;;;4.57;;
36061;SDS011;22123;52.412;20.970;2022-08-19T15:36:14;15.27;;;5.15;;
36061;SDS011;22123;52.412;20.970;2022-08-19T15:38:40;11.02;;;4.10;;
36061;SDS011;22123;52.412;20.970;2022-08-19T15:41:13;14.82;;;4.78;;
36061;SDS011;22123;52.412;20.970;2022-08-19T15:43:48;13.35;;;4.32;;
36061;SDS011;22123;52.412;20.970;2022-08-19T15:46:18;9.40;;;4.60;;
36061;SDS011;22123;52.412;20.970;2022-08-19T15:48:46;7.68;;;3.95;;
36061;SDS011;22123;52.412;20.970;2022-08-19T15:51:12;13.45;;;4.82;;
36061;SDS011;22123;52.412;20.970;2022-08-19T15:53:37;13.80;;;4.10;;
36061;SDS011;22123;52.412;20.970;2022-08-19T15:56:04;15.90;;;4.40;;
36061;SDS011;22123;52.412;20.970;2022-08-19T15:58:30;17.33;;;4.93;;
36061;SDS011;22123;52.412;20.970;2022-08-19T16:01:13;13.95;;;4.40;;
36061;SDS011;22123;52.412;20.970;2022-08-19T16:03:58;16.67;;;4.10;;
36061;SDS011;22123;52.412;20.970;2022-08-19T16:06:50;7.82;;;4.07;;
36061;SDS011;22123;52.412;20.970;2022-08-19T16:09:18;16.13;;;4.20;;
36061;SDS011;22123;52.412;20.970;2022-08-19T16:11:46;13.57;;;3.45;;
36061;SDS011;22123;52.412;20.970;2022-08-19T16:14:18;9.38;;;4.00;;
36061;SDS011;22123;52.412;20.970;2022-08-19T16:16:44;7.93;;;3.78;;
36061;SDS011;22123;52.412;20.970;2022-08-19T16:19:11;17.85;;;3.70;;
36061;SDS011;22123;52.412;20.970;2022-08-19T16:21:41;16.77;;;4.97;;
36061;SDS011;22123;52.412;20.970;2022-08-19T16:24:09;7.30;;;4.05;;
36061;SDS011;22123;52.412;20.970;2022-08-19T16:26:37;17.80;;;3.65;;
36061;SDS011;22123;52.412;20.970;2022-08-19T16:29:03;14.73;;;4.65;;
36061;SDS011;22123;52.412;20.970;2022-08-19T16:31:29;13.63;;;4.20;;
36061;SDS011;22123;52.412;20.970;2022-08-19T16:33:54;15.30;;;4.53;;
36061;SDS011;22123;52.412;20.970;2022-08-19T16:36:20;7.57;;;3.85;;
36061;SDS011;22123;52.412;20.970;2022-08-19T16:38:48;7.72;;;4.18;;
36061;SDS011;22123;52.412;20.970;2022-08-19T16:41:14;13.95;;;3.95;;
36061;SDS011;22123;52.412;20.970;2022-08-19T16:43:40;14.13;;;3.65;;
36061;SDS011;22123;52.412;20.970;2022-08-19T16:46:06;10.10;;;4.50;;
36061;SDS011;22123;52.412;20.970;2022-08-19T16:48:33;13.25;;;4.15;;
36061;SDS011;22123;52.412;20.970;2022-08-19T16:51:00;8.90;;;3.63;;
36061;SDS011;22123;52.412;20.970;2022-08-19T16:53:27;16.65;;;5.50;;
36061;SDS011;22123;52.412;20.970;2022-08-19T16:55:56;12.23;;;4.13;;
36061;SDS011;22123;52.412;20.970;2022-08-19T16:58:22;12.65;;;3.85;;
36061;SDS011;22123;52.412;20.970;2022-08-19T17:00:50;13.70;;;4.20;;
36061;SDS011;22123;52.412;20.970;2022-08-19T17:03:17;11.93;;;4.45;;
36061;SDS011;22123;52.412;20.970;2022-08-19T17:05:45;10.02;;;4.00;;
36061;SDS011;22123;52.412;20.970;2022-08-19T17:08:11;7.22;;;4.03;;
36061;SDS011;22123;52.412;20.970;2022-08-19T17:10:38;15.73;;;4.47;;
36061;SDS011;22123;52.412;20.970;2022-08-19T17:13:04;9.45;;;3.90;;
36061;SDS011;22123;52.412;20.970;2022-08-19T17:15:30;9.80;;;4.32;;
36061;SDS011;22123;52.412;20.970;2022-08-19T17:18:03;10.77;;;4.78;;
36061;SDS011;22123;52.412;20.970;2022-08-19T17:20:30;9.73;;;4.43;;
36061;SDS011;22123;52.412;20.970;2022-08-19T17:22:57;7.22;;;4.45;;
36061;SDS011;22123;52.412;20.970;2022-08-19T17:25:23;14.68;;;4.60;;
36061;SDS011;22123;52.412;20.970;2022-08-19T17:27:50;12.82;;;4.57;;
36061;SDS011;22123;52.412;20.970;2022-08-19T17:30:18;12.75;;;4.35;;
36061;SDS011;22123;52.412;20.970;2022-08-19T17:32:44;17.90;;;5.07;;
36061;SDS011;22123;52.412;20.970;2022-08-19T17:35:10;12.57;;;4.72;;
36061;SDS011;22123;52.412;20.970;2022-08-19T17:37:35;9.30;;;4.38;;
36061;SDS011;22123;52.412;20.970;2022-08-19T17:40:11;12.70;;;4.30;;
36061;SDS011;22123;52.412;20.970;2022-08-19T17:42:36;13.93;;;4.53;;
36061;SDS011;22123;52.412;20.970;2022-08-19T17:52:18;10.43;;;4.78;;
36061;SDS011;22123;52.412;20.970;2022-08-19T17:54:44;11.18;;;4.43;;
36061;SDS011;22123;52.412;20.970;2022-08-19T17:57:10;15.52;;;4.65;;
36061;SDS011;22123;52.412;20.970;2022-08-19T17:59:36;14.80;;;4.50;;
36061;SDS011;22123;52.412;20.970;2022-08-19T18:02:05;12.25;;;5.13;;
36061;SDS011;22123;52.412;20.970;2022-08-19T18:06:58;9.30;;;4.90;;
36061;SDS011;22123;52.412;20.970;2022-08-19T18:09:29;6.35;;;4.45;;
36061;SDS011;22123;52.412;20.970;2022-08-19T18:11:57;11.70;;;4.50;;
36061;SDS011;22123;52.412;20.970;2022-08-19T18:14:24;18.35;;;5.35;;
36061;SDS011;22123;52.412;20.970;2022-08-19T18:16:55;9.05;;;5.00;;
36061;SDS011;22123;52.412;20.970;2022-08-19T18:19:22;13.93;;;4.82;;
36061;SDS011;22123;52.412;20.970;2022-08-19T18:21:47;16.10;;;4.97;;
36061;SDS011;22123;52.412;20.970;2022-08-19T18:24:13;16.33;;;5.50;;
36061;SDS011;22123;52.412;20.970;2022-08-19T18:26:38;10.75;;;4.90;;
36061;SDS011;22123;52.412;20.970;2022-08-19T18:29:04;11.00;;;4.80;;
36061;SDS011;22123;52.412;20.970;2022-08-19T18:31:29;8.30;;;4.55;;
36061;SDS011;22123;52.412;20.970;2022-08-19T18:33:55;12.85;;;4.85;;
36061;SDS011;22123;52.412;20.970;2022-08-19T18:36:21;14.40;;;5.40;;
36061;SDS011;22123;52.412;20.970;2022-08-19T18:38:46;12.15;;;5.20;;
36061;SDS011;22123;52.412;20.970;2022-08-19T18:41:30;9.80;;;5.07;;
36061;SDS011;22123;52.412;20.970;2022-08-19T18:44:14;12.02;;;5.03;;
36061;SDS011;22123;52.412;20.970;2022-08-19T18:46:58;13.88;;;5.22;;
36061;SDS011;22123;52.412;20.970;2022-08-19T18:49:42;11.27;;;5.47;;
36061;SDS011;22123;52.412;20.970;2022-08-19T18:52:07;12.40;;;4.82;;
36061;SDS011;22123;52.412;20.970;2022-08-19T18:54:33;9.45;;;5.00;;
36061;SDS011;22123;52.412;20.970;2022-08-19T18:56:59;12.50;;;5.20;;
36061;SDS011;22123;52.412;20.970;2022-08-19T18:59:25;15.85;;;5.45;;
36061;SDS011;22123;52.412;20.970;2022-08-19T19:01:52;20.00;;;5.18;;
36061;SDS011;22123;52.412;20.970;2022-08-19T19:04:22;9.20;;;4.78;;
36061;SDS011;22123;52.412;20.970;2022-08-19T19:06:49;13.48;;;4.93;;
36061;SDS011;22123;52.412;20.970;2022-08-19T19:09:16;10.63;;;5.03;;
36061;SDS011;22123;52.412;20.970;2022-08-19T19:11:47;8.38;;;4.95;;
36061;SDS011;22123;52.412;20.970;2022-08-19T19:14:16;15.27;;;4.70;;
36061;SDS011;22123;52.412;20.970;2022-08-19T19:16:47;10.02;;;4.70;;
36061;SDS011;22123;52.412;20.970;2022-08-19T19:19:13;11.73;;;5.45;;
36061;SDS011;22123;52.412;20.970;2022-08-19T19:21:41;13.35;;;4.82;;
36061;SDS011;22123;52.412;20.970;2022-08-19T19:24:11;12.13;;;5.20;;
36061;SDS011;22123;52.412;20.970;2022-08-19T19:26:39;14.57;;;5.85;;
36061;SDS011;22123;52.412;20.970;2022-08-19T19:29:05;16.98;;;5.57;;
36061;SDS011;22123;52.412;20.970;2022-08-19T19:31:31;18.52;;;5.32;;
36061;SDS011;22123;52.412;20.970;2022-08-19T19:33:57;11.32;;;5.05;;
36061;SDS011;22123;52.412;20.970;2022-08-19T19:36:23;13.23;;;5.63;;
36061;SDS011;22123;52.412;20.970;2022-08-19T19:38:48;12.60;;;5.20;;
36061;SDS011;22123;52.412;20.970;2022-08-19T19:41:14;8.77;;;4.88;;
36061;SDS011;22123;52.412;20.970;2022-08-19T19:43:41;12.23;;;5.10;;
36061;SDS011;22123;52.412;20.970;2022-08-19T19:46:07;8.73;;;5.43;;
36061;SDS011;22123;52.412;20.970;2022-08-19T19:48:32;17.98;;;5.78;;
36061;SDS011;22123;52.412;20.970;2022-08-19T19:50:59;14.35;;;5.35;;
36061;SDS011;22123;52.412;20.970;2022-08-19T19:53:26;13.75;;;5.43;;
36061;SDS011;22123;52.412;20.970;2022-08-19T19:55:53;11.80;;;5.07;;
36061;SDS011;22123;52.412;20.970;2022-08-19T19:58:23;15.15;;;4.95;;
36061;SDS011;22123;52.412;20.970;2022-08-19T20:00:52;26.20;;;6.07;;